Time;durP1;ratioP1;P1;durP2;ratioP2;P2;SDS_P1;SDS_P2;PMS_P1;PMS_P2;Temp;Humidity;BMP_temperature;BMP_pressure;BME280_temperature;BME280_humidity;BME280_pressure;Samples;Min_cycle;Max_cycle;Signal;HPM_P1;HPM_P2
2020/12/17 05:39:22;;;;;;;11.93;4.20;;;2.60;96.20;;;;;;5020127;28;20688;-86
2020/12/17 05:46:00;;;;;;;4.10;3.70;;;2.60;96.80;;;;;;5002780;28;20195;-85
2020/12/17 05:48:29;;;;;;;5.00;4.20;;;2.60;96.60;;;;;;5011640;28;20585;-85
2020/12/17 05:50:57;;;;;;;4.10;3.70;;;2.70;96.60;;;;;;5031990;28;20289;-85
2020/12/17 05:53:25;;;;;;;6.57;3.83;;;2.70;96.40;;;;;;5024152;28;20729;-86
2020/12/17 05:56:06;;;;;;;24.77;4.63;;;2.80;95.80;;;;;;5023340;28;20195;-86
2020/12/17 05:58:40;;;;;;;5.73;3.70;;;2.70;95.40;;;;;;5022305;28;20254;-86
2020/12/17 06:16:43;;;;;;;32.33;5.17;;;2.50;95.90;;;;;;5864578;23;20805;-87
2020/12/17 06:19:21;;;;;;;4.50;4.10;;;2.40;95.80;;;;;;5039234;28;20225;-86
2020/12/17 06:21:48;;;;;;;11.57;3.77;;;2.50;96.20;;;;;;5042259;28;20218;-91
2020/12/17 06:24:18;;;;;;;4.10;3.63;;;2.50;96.30;;;;;;5040271;28;20228;-85
2020/12/17 06:26:52;;;;;;;4.43;4.00;;;2.50;95.90;;;;;;5037120;28;20191;-88
2020/12/17 06:29:20;;;;;;;22.50;4.23;;;2.50;96.00;;;;;;5035838;28;20217;-86
2020/12/17 06:31:55;;;;;;;16.33;4.50;;;2.40;96.00;;;;;;5028770;28;20203;-89
2020/12/17 06:34:22;;;;;;;9.97;3.90;;;2.30;96.20;;;;;;5012704;28;20222;-88
2020/12/17 06:36:56;;;;;;;4.30;3.90;;;2.20;96.10;;;;;;5014190;28;20223;-88
2020/12/17 06:39:23;;;;;;;12.63;4.57;;;2.30;96.40;;;;;;5011541;28;20216;-85
2020/12/17 06:41:49;;;;;;;16.53;4.50;;;2.30;96.50;;;;;;5009559;28;20313;-85
2020/12/17 06:44:26;;;;;;;5.43;4.43;;;2.30;96.60;;;;;;5011830;28;20309;-85
2020/12/17 06:46:57;;;;;;;13.20;4.70;;;2.30;96.60;;;;;;5009728;28;20202;-89
2020/12/17 06:49:27;;;;;;;5.67;4.00;;;2.30;96.20;;;;;;5015693;28;20257;-88
2020/12/17 06:52:06;;;;;;;7.03;4.20;;;2.40;96.20;;;;;;5016831;28;20262;-87
2020/12/17 06:54:41;;;;;;;20.97;5.40;;;2.50;96.10;;;;;;5011464;28;20226;-89
2020/12/17 06:57:09;;;;;;;8.57;4.97;;;2.40;95.90;;;;;;5016835;28;20191;-89
2020/12/17 06:59:37;;;;;;;23.00;5.50;;;2.30;96.20;;;;;;5010597;28;20315;-84
2020/12/17 07:02:05;;;;;;;15.97;5.20;;;2.40;96.10;;;;;;4992876;28;20640;-84
2020/12/17 07:04:40;;;;;;;22.23;5.10;;;2.40;95.90;;;;;;4990049;28;20700;-86
2020/12/17 07:07:18;;;;;;;15.40;5.37;;;2.30;95.80;;;;;;4992577;28;20555;-90
2020/12/17 07:09:54;;;;;;;9.40;4.80;;;2.30;96.00;;;;;;4991430;28;20211;-85
2020/12/17 07:15:46;;;;;;;5.87;5.27;;;2.30;96.40;;;;;;4997262;28;20234;-85
2020/12/17 07:18:23;;;;;;;6.17;4.97;;;2.30;96.40;;;;;;4988616;28;20305;-91
2020/12/17 07:20:54;;;;;;;16.90;5.33;;;2.30;96.30;;;;;;4986169;28;20285;-85
2020/12/17 07:23:22;;;;;;;15.23;5.37;;;2.30;95.70;;;;;;4986230;28;20224;-86
2020/12/17 07:25:54;;;;;;;8.77;5.27;;;2.30;95.80;;;;;;4991808;28;20220;-87
2020/12/17 07:28:26;;;;;;;13.03;6.03;;;2.20;95.90;;;;;;4995785;28;20307;-85
2020/12/17 07:30:54;;;;;;;9.33;6.63;;;2.30;96.30;;;;;;4992603;28;20275;-90
2020/12/17 07:33:43;;;;;;;9.50;6.40;;;2.40;96.30;;;;;;4983648;28;20237;-85
2020/12/17 07:36:12;;;;;;;9.47;6.77;;;2.60;95.50;;;;;;4982864;28;20283;-84
2020/12/17 07:38:40;;;;;;;7.93;6.60;;;2.60;95.40;;;;;;5003294;28;20226;-86
2020/12/17 07:41:21;;;;;;;8.40;6.40;;;2.70;95.00;;;;;;5002103;28;20229;-89
2020/12/17 07:43:48;;;;;;;7.67;6.00;;;2.60;94.60;;;;;;5013887;28;20249;-85
2020/12/17 07:46:14;;;;;;;10.80;5.93;;;2.70;94.60;;;;;;5010155;28;20210;-88
2020/12/17 07:48:46;;;;;;;9.07;6.80;;;2.80;94.60;;;;;;5011548;28;20357;-85
2020/12/17 07:51:43;;;;;;;9.10;6.40;;;2.80;94.60;;;;;;5008979;28;20295;-85
2020/12/17 07:54:09;;;;;;;8.20;6.10;;;2.90;94.60;;;;;;4949023;28;20272;-86
2020/12/17 07:56:36;;;;;;;9.50;5.90;;;3.00;94.70;;;;;;4980891;28;20797;-87
2020/12/17 07:59:06;;;;;;;6.53;5.70;;;3.10;94.00;;;;;;4998692;28;20289;-83
2020/12/17 08:01:32;;;;;;;8.83;5.20;;;3.20;93.50;;;;;;5006015;28;20983;-84
2020/12/17 08:04:00;;;;;;;4.97;4.40;;;3.20;93.70;;;;;;5008866;28;20222;-83
2020/12/17 08:06:28;;;;;;;5.13;4.63;;;3.30;93.80;;;;;;5004307;28;20258;-83
2020/12/17 08:08:58;;;;;;;4.00;3.60;;;3.50;93.60;;;;;;5010612;28;20215;-85
2020/12/17 08:11:25;;;;;;;4.93;3.40;;;3.60;92.70;;;;;;5001619;28;20199;-88
2020/12/17 08:14:00;;;;;;;4.17;3.50;;;3.60;91.90;;;;;;5004219;28;20227;-92
2020/12/17 08:16:26;;;;;;;4.57;3.60;;;3.50;92.10;;;;;;5012126;28;20336;-85
2020/12/17 08:18:54;;;;;;;4.30;3.90;;;3.60;92.10;;;;;;5009732;28;20237;-82
2020/12/17 08:21:22;;;;;;;4.50;4.10;;;3.60;92.10;;;;;;5000124;28;20606;-89
2020/12/17 08:23:48;;;;;;;4.30;3.90;;;3.70;91.70;;;;;;5015121;28;20229;-87
2020/12/17 08:26:19;;;;;;;4.47;4.07;;;3.60;91.70;;;;;;5014147;28;20290;-87
2020/12/17 08:28:48;;;;;;;4.30;3.90;;;3.50;91.40;;;;;;5003811;28;20298;-82
2020/12/17 08:31:16;;;;;;;4.33;3.93;;;3.60;91.80;;;;;;5001473;28;20203;-82
2020/12/17 08:33:44;;;;;;;4.60;3.87;;;3.60;92.10;;;;;;5001328;28;20226;-88
2020/12/17 08:36:16;;;;;;;4.20;3.80;;;3.70;92.10;;;;;;5005849;28;20698;-84
2020/12/17 08:38:55;;;;;;;4.33;3.80;;;3.80;92.10;;;;;;5006757;28;20226;-85
2020/12/17 08:41:25;;;;;;;4.30;3.90;;;3.80;91.90;;;;;;5011456;28;20226;-91
2020/12/17 08:44:18;;;;;;;4.30;3.90;;;4.10;91.50;;;;;;5000256;28;20258;-84
2020/12/17 08:46:49;;;;;;;4.83;4.13;;;4.10;91.50;;;;;;5014864;28;20192;-86
2020/12/17 08:49:16;;;;;;;4.27;3.87;;;4.10;91.60;;;;;;5008483;28;20246;-87
2020/12/17 08:51:47;;;;;;;3.67;3.37;;;4.20;91.60;;;;;;5018086;28;20199;-88
2020/12/17 08:54:25;;;;;;;4.30;3.90;;;4.60;91.30;;;;;;5016971;28;20220;-88
2020/12/17 08:57:01;;;;;;;3.80;3.50;;;5.10;90.20;;;;;;5012458;28;20203;-89
2020/12/17 08:59:28;;;;;;;4.03;3.63;;;5.40;89.20;;;;;;5004021;28;20696;-92
2020/12/17 09:01:57;;;;;;;3.60;3.30;;;5.50;89.30;;;;;;5007554;28;20791;-91
2020/12/17 09:04:26;;;;;;;5.80;3.83;;;5.70;87.50;;;;;;5012590;28;20277;-91
2020/12/17 09:06:54;;;;;;;3.57;3.17;;;6.00;86.90;;;;;;5021883;28;20204;-89
2020/12/17 09:12:54;;;;;;;3.50;3.20;;;6.30;82.30;;;;;;5021807;28;20188;-89
2020/12/17 09:15:43;;;;;;;4.90;4.00;;;6.30;83.60;;;;;;5019162;28;20191;-88
2020/12/17 09:18:10;;;;;;;4.10;3.70;;;6.30;83.40;;;;;;5008519;28;20231;-86
2020/12/17 09:20:36;;;;;;;4.57;4.17;;;6.20;84.50;;;;;;5004676;28;20564;-88
2020/12/17 09:23:17;;;;;;;3.42;3.10;;;6.50;83.50;;;;;;5017258;28;20306;-88
2020/12/17 09:25:45;;;;;;;4.05;3.50;;;7.20;80.90;;;;;;5017513;28;20204;-88
2020/12/17 09:28:38;;;;;;;3.25;2.95;;;7.50;78.40;;;;;;5006698;28;20290;-90
2020/12/17 09:31:56;;;;;;;4.90;3.25;;;7.70;77.20;;;;;;5008314;28;20237;-88
2020/12/17 09:34:23;;;;;;;3.55;3.22;;;8.10;75.30;;;;;;5025791;28;20307;-89
2020/12/17 09:36:58;;;;;;;4.57;3.70;;;8.90;73.80;;;;;;5019880;28;20729;-90
2020/12/17 09:39:30;;;;;;;3.97;3.53;;;9.40;68.00;;;;;;5020983;28;20243;-88
2020/12/17 09:45:26;;;;;;;3.55;3.25;;;9.90;62.90;;;;;;5027083;28;20565;-90
2020/12/17 09:47:52;;;;;;;3.30;3.00;;;9.90;63.40;;;;;;5024743;28;20266;-86
2020/12/17 09:50:19;;;;;;;3.35;3.05;;;9.60;64.10;;;;;;5025502;28;20290;-86
2020/12/17 09:52:46;;;;;;;3.28;2.97;;;9.40;64.50;;;;;;5012934;28;20228;-92
2020/12/17 09:55:12;;;;;;;4.57;3.63;;;9.10;66.60;;;;;;5021373;28;20253;-87
2020/12/17 09:58:15;;;;;;;3.20;2.90;;;8.60;68.90;;;;;;5030626;28;20322;-87
2020/12/17 10:00:53;;;;;;;4.85;4.22;;;8.30;73.20;;;;;;5021990;28;20218;-88
2020/12/17 10:03:19;;;;;;;3.80;3.00;;;7.90;75.30;;;;;;5015453;28;20294;-87
2020/12/17 10:05:55;;;;;;;4.30;3.53;;;7.80;77.00;;;;;;5022238;28;20659;-87
2020/12/17 10:15:14;;;;;;;3.30;3.00;;;7.20;81.80;;;;;;5014956;28;20218;-88
2020/12/17 10:17:41;;;;;;;4.40;4.00;;;7.50;80.50;;;;;;5016269;28;20690;-87
2020/12/17 10:20:10;;;;;;;4.53;3.25;;;7.60;79.50;;;;;;5022898;28;20273;-85
2020/12/17 10:23:06;;;;;;;3.60;3.30;;;7.60;79.40;;;;;;5021943;28;20227;-87
2020/12/17 10:25:47;;;;;;;4.43;3.25;;;7.50;80.80;;;;;;5018413;28;20200;-87
2020/12/17 10:28:26;;;;;;;3.20;2.90;;;7.70;79.30;;;;;;5022671;28;20237;-87
2020/12/17 10:34:31;;;;;;;3.20;2.90;;;8.00;78.30;;;;;;5029360;28;20734;-86
2020/12/17 10:36:58;;;;;;;5.38;2.78;;;8.70;75.90;;;;;;5025621;28;20215;-86
2020/12/17 10:39:47;;;;;;;2.80;2.50;;;9.00;73.90;;;;;;5024989;28;20278;-85
2020/12/17 10:45:13;;;;;;;6.50;2.80;;;9.90;67.70;;;;;;4995351;28;20218;-86
2020/12/17 10:47:42;;;;;;;3.22;2.92;;;9.90;67.10;;;;;;5015023;28;20737;-94
2020/12/17 10:50:09;;;;;;;4.40;3.47;;;9.80;67.30;;;;;;5007921;28;20226;-92
2020/12/17 10:52:37;;;;;;;4.22;2.85;;;10.00;64.10;;;;;;5014603;28;20585;-87
2020/12/17 10:55:04;;;;;;;3.55;2.80;;;10.40;63.20;;;;;;5021233;28;20195;-87
2020/12/17 10:57:31;;;;;;;2.95;2.75;;;11.00;59.50;;;;;;5019830;28;20261;-89
2020/12/17 10:59:57;;;;;;;3.85;3.55;;;11.20;58.80;;;;;;5008261;28;20782;-90
2020/12/17 11:02:25;;;;;;;2.90;2.67;;;11.60;56.90;;;;;;5014582;28;20287;-88
2020/12/17 11:04:52;;;;;;;4.88;3.20;;;12.30;54.60;;;;;;5016657;28;20267;-88
2020/12/17 11:07:20;;;;;;;3.20;2.90;;;12.20;53.90;;;;;;5012525;28;20247;-89
2020/12/17 11:09:47;;;;;;;4.25;3.40;;;11.30;55.70;;;;;;5011200;28;20286;-89
2020/12/17 11:12:13;;;;;;;3.17;2.80;;;10.80;58.70;;;;;;5014861;28;20271;-89
2020/12/17 11:14:40;;;;;;;4.30;3.30;;;10.30;61.30;;;;;;5012741;28;20231;-87
2020/12/17 11:17:07;;;;;;;3.85;3.03;;;9.90;66.80;;;;;;5006303;28;20574;-86
2020/12/17 11:19:33;;;;;;;3.60;3.30;;;9.70;70.10;;;;;;5005057;28;20681;-85
2020/12/17 11:22:00;;;;;;;3.60;3.30;;;9.50;70.80;;;;;;5010771;28;20223;-84
2020/12/17 11:24:28;;;;;;;4.82;3.30;;;9.30;74.20;;;;;;5016104;28;20202;-84
2020/12/17 11:26:54;;;;;;;4.93;3.20;;;9.00;75.20;;;;;;5007303;28;20555;-87
2020/12/17 11:29:21;;;;;;;4.35;3.67;;;8.90;75.60;;;;;;5011637;28;20280;-87
2020/12/17 11:31:48;;;;;;;5.78;3.28;;;8.90;76.80;;;;;;5011293;28;20203;-87
2020/12/17 11:34:36;;;;;;;3.40;3.10;;;8.80;77.10;;;;;;5022600;28;20283;-85
2020/12/17 11:37:03;;;;;;;4.68;3.47;;;8.70;76.20;;;;;;5021887;28;20227;-85
2020/12/17 11:39:30;;;;;;;4.20;3.35;;;8.70;76.30;;;;;;5019562;28;20282;-89
2020/12/17 11:41:57;;;;;;;3.90;3.45;;;8.80;76.40;;;;;;5017139;28;20317;-86
2020/12/17 11:44:25;;;;;;;5.75;3.75;;;8.70;76.20;;;;;;5011943;28;20314;-84
2020/12/17 11:46:52;;;;;;;5.97;3.53;;;8.70;76.80;;;;;;5000806;28;20207;-86
2020/12/17 11:49:19;;;;;;;4.55;4.07;;;8.70;77.50;;;;;;4998737;28;20223;-87
2020/12/17 11:51:45;;;;;;;6.50;4.10;;;8.70;78.20;;;;;;5000482;28;20208;-88
2020/12/17 11:54:11;;;;;;;4.28;3.88;;;8.80;77.10;;;;;;5001710;28;20234;-86
2020/12/17 11:56:39;;;;;;;4.30;3.90;;;8.90;76.90;;;;;;5001258;28;20295;-90
2020/12/17 11:59:05;;;;;;;5.07;4.30;;;9.00;76.50;;;;;;5000035;28;20266;-87
2020/12/17 12:01:32;;;;;;;6.47;3.90;;;9.10;76.80;;;;;;5001113;28;20318;-87
2020/12/17 12:03:59;;;;;;;6.20;3.70;;;9.10;76.90;;;;;;5001542;28;20322;-88
2020/12/17 12:06:25;;;;;;;6.10;3.72;;;9.20;76.10;;;;;;5001944;28;20207;-87
2020/12/17 12:08:51;;;;;;;7.20;3.95;;;9.20;75.20;;;;;;5000601;28;20239;-85
2020/12/17 12:11:18;;;;;;;6.95;3.92;;;9.30;74.20;;;;;;5001088;28;20315;-88
2020/12/17 12:13:45;;;;;;;11.98;4.07;;;9.40;74.40;;;;;;5007522;28;20222;-91
2020/12/17 12:16:16;;;;;;;6.32;3.95;;;9.40;74.40;;;;;;5016093;28;20238;-85
2020/12/17 12:18:42;;;;;;;8.10;3.63;;;9.50;75.20;;;;;;5016526;28;20230;-85
2020/12/17 12:21:10;;;;;;;6.57;3.42;;;9.50;74.40;;;;;;5023295;28;20229;-85
2020/12/17 12:23:37;;;;;;;5.65;3.83;;;9.50;74.50;;;;;;5022466;28;20235;-87
2020/12/17 12:26:04;;;;;;;8.18;3.95;;;9.50;74.40;;;;;;5016776;28;20208;-86
2020/12/17 12:28:40;;;;;;;5.38;3.90;;;9.60;74.50;;;;;;5021707;28;20246;-85
2020/12/17 12:31:07;;;;;;;4.57;3.20;;;9.60;74.50;;;;;;5025237;28;20218;-85
2020/12/17 12:33:34;;;;;;;8.73;3.67;;;9.70;74.60;;;;;;5025575;28;20272;-85
2020/12/17 12:36:00;;;;;;;6.03;3.65;;;9.80;74.70;;;;;;5025404;28;20198;-85
2020/12/17 12:38:26;;;;;;;9.35;3.70;;;9.80;74.70;;;;;;5020351;28;20318;-85
2020/12/17 12:40:53;;;;;;;5.78;3.50;;;9.90;74.90;;;;;;5026261;28;20341;-85
2020/12/17 12:46:48;;;;;;;10.18;3.80;;;10.00;73.00;;;;;;5025392;28;20251;-85
2020/12/17 12:50:06;;;;;;;7.75;3.20;;;10.00;72.90;;;;;;5007204;28;20228;-84
2020/12/17 12:56:24;;;;;;;4.13;3.60;;;10.10;73.10;;;;;;5024621;28;20644;-85
2020/12/17 13:06:59;;;;;;;5.72;3.67;;;10.10;73.00;;;;;;5296344;23;20304;-84
2020/12/17 13:09:26;;;;;;;6.25;3.45;;;10.10;73.10;;;;;;5063379;28;20276;-84
2020/12/17 13:12:31;;;;;;;7.40;3.70;;;10.10;73.10;;;;;;5066187;28;20201;-84
2020/12/17 13:18:31;;;;;;;8.90;3.75;;;10.30;73.30;;;;;;5065567;28;20241;-84
2020/12/17 13:20:58;;;;;;;6.63;4.40;;;10.30;73.40;;;;;;5048813;28;20201;-85
2020/12/17 13:23:26;;;;;;;7.03;4.28;;;10.30;73.30;;;;;;5051966;28;20217;-84
2020/12/17 13:25:52;;;;;;;7.90;3.88;;;10.30;73.30;;;;;;5050479;28;20206;-87
2020/12/17 13:28:18;;;;;;;5.13;3.38;;;10.30;73.30;;;;;;5055275;28;20307;-85
2020/12/17 13:30:47;;;;;;;3.95;2.85;;;10.30;73.30;;;;;;5057838;28;20205;-84
2020/12/17 13:33:13;;;;;;;12.18;6.20;;;10.40;72.40;;;;;;5054834;28;20229;-88
2020/12/17 13:35:40;;;;;;;10.90;5.63;;;10.50;72.40;;;;;;5054296;28;20202;-84
2020/12/17 13:38:06;;;;;;;20.17;5.80;;;10.40;73.50;;;;;;5050828;28;20308;-84
2020/12/17 13:44:05;;;;;;;12.80;6.40;;;10.20;73.20;;;;;;5059574;28;20232;-85
2020/12/17 13:46:32;;;;;;;10.63;6.05;;;10.10;73.10;;;;;;5064085;28;20296;-90
2020/12/17 13:52:20;;;;;;;7.28;5.32;;;10.00;75.60;;;;;;5063746;28;20560;-87
2020/12/17 13:54:59;;;;;;;8.40;5.28;;;9.90;77.30;;;;;;5066185;28;20324;-88
2020/12/17 13:57:25;;;;;;;9.85;5.40;;;9.80;77.80;;;;;;5074080;28;20341;-86
2020/12/17 14:00:01;;;;;;;8.32;5.47;;;9.70;78.60;;;;;;5052067;28;20232;-85
2020/12/17 14:02:57;;;;;;;11.95;5.75;;;9.60;79.60;;;;;;5037843;28;20252;-85
2020/12/17 14:05:41;;;;;;;10.60;5.38;;;9.50;80.60;;;;;;5038462;28;20292;-85
2020/12/17 14:12:25;;;;;;;17.42;5.97;;;9.30;82.30;;;;;;5055006;28;20285;-86
2020/12/17 14:14:52;;;;;;;11.25;6.82;;;9.20;83.20;;;;;;5034377;28;20223;-85
2020/12/17 14:17:19;;;;;;;12.13;5.88;;;9.10;84.40;;;;;;5033153;28;20287;-86
2020/12/17 14:19:45;;;;;;;7.15;5.57;;;9.00;85.40;;;;;;5041178;28;20226;-86
2020/12/17 14:22:13;;;;;;;7.13;6.35;;;9.00;85.40;;;;;;5041299;28;20622;-84
2020/12/17 14:24:40;;;;;;;13.98;5.88;;;8.80;85.90;;;;;;5044345;28;20642;-84
2020/12/17 14:28:04;;;;;;;6.53;5.30;;;8.80;86.20;;;;;;5042964;28;20262;-85
2020/12/17 14:34:09;;;;;;;11.40;6.00;;;8.60;87.80;;;;;;5040955;28;20194;-84
2020/12/17 14:37:00;;;;;;;7.45;5.95;;;8.50;88.60;;;;;;5041377;28;20190;-84
2020/12/17 14:39:27;;;;;;;8.68;5.93;;;8.40;89.60;;;;;;5028923;28;20241;-84
2020/12/17 14:41:59;;;;;;;11.27;6.50;;;8.20;90.10;;;;;;5042834;28;20254;-84
2020/12/17 14:44:26;;;;;;;8.13;6.13;;;8.20;90.30;;;;;;5039411;28;20302;-85
2020/12/17 14:46:52;;;;;;;10.13;6.65;;;8.00;90.30;;;;;;5037398;28;20289;-88
2020/12/17 14:49:19;;;;;;;9.07;7.20;;;7.90;90.40;;;;;;5019925;28;20805;-86
2020/12/17 14:51:46;;;;;;;8.80;7.00;;;7.90;90.70;;;;;;5018904;28;20210;-91
2020/12/17 14:54:13;;;;;;;7.40;6.28;;;7.70;91.10;;;;;;5021925;28;20223;-85
2020/12/17 14:56:40;;;;;;;8.98;5.97;;;7.60;91.20;;;;;;5034807;28;20258;-89
2020/12/17 14:59:06;;;;;;;9.32;6.38;;;7.60;91.20;;;;;;5022547;28;20943;-91
2020/12/17 15:01:38;;;;;;;8.33;5.87;;;7.50;91.30;;;;;;5025025;28;20321;-92
2020/12/17 15:04:05;;;;;;;6.63;5.93;;;7.40;91.30;;;;;;5035038;28;20222;-89
2020/12/17 15:06:32;;;;;;;6.00;5.40;;;7.40;91.20;;;;;;5034828;28;20764;-88
2020/12/17 15:08:59;;;;;;;11.73;5.30;;;7.30;91.20;;;;;;5044521;28;20199;-93
2020/12/17 15:11:25;;;;;;;7.90;6.33;;;7.20;91.60;;;;;;5025144;28;20305;-88
2020/12/17 15:13:52;;;;;;;11.70;6.95;;;7.10;91.90;;;;;;5019821;28;20728;-88
2020/12/17 15:16:18;;;;;;;7.67;6.70;;;7.00;92.10;;;;;;5028337;28;20206;-90
2020/12/17 15:18:45;;;;;;;7.50;6.80;;;6.90;92.20;;;;;;5026275;28;20571;-91
2020/12/17 15:21:16;;;;;;;7.70;6.90;;;6.80;92.40;;;;;;5021630;28;20210;-93
2020/12/17 15:23:44;;;;;;;9.40;7.30;;;6.80;92.60;;;;;;5024157;28;20317;-88
2020/12/17 15:26:11;;;;;;;10.77;7.73;;;6.70;92.70;;;;;;5019838;28;20236;-91
2020/12/17 15:28:38;;;;;;;8.93;7.37;;;6.70;93.00;;;;;;5017941;28;20238;-92
2020/12/17 15:31:04;;;;;;;9.83;7.40;;;6.60;92.90;;;;;;5018688;28;20257;-86
2020/12/17 15:33:31;;;;;;;11.87;7.90;;;6.60;93.00;;;;;;5015856;28;20230;-89
2020/12/17 15:35:57;;;;;;;10.37;8.33;;;6.60;93.20;;;;;;5013241;28;20306;-87
2020/12/17 15:38:24;;;;;;;11.10;8.40;;;6.40;93.50;;;;;;5015741;28;20238;-90
2020/12/17 15:40:51;;;;;;;11.60;8.37;;;6.30;93.80;;;;;;5012445;28;20206;-90
2020/12/17 15:43:18;;;;;;;12.80;8.33;;;6.30;93.90;;;;;;5016356;28;20218;-92
2020/12/17 15:45:44;;;;;;;11.57;8.20;;;6.20;94.40;;;;;;5018896;28;20208;-87
2020/12/17 15:48:11;;;;;;;10.97;7.70;;;6.10;94.60;;;;;;5019392;28;20692;-86
2020/12/17 15:50:37;;;;;;;8.77;7.30;;;6.10;94.90;;;;;;5018273;28;20328;-89
2020/12/17 15:53:04;;;;;;;8.97;7.90;;;6.10;95.30;;;;;;5019091;28;20294;-87
2020/12/17 15:55:31;;;;;;;11.00;7.83;;;6.10;95.10;;;;;;5013659;28;20214;-89
2020/12/17 15:57:58;;;;;;;9.37;7.97;;;6.10;95.20;;;;;;5013205;28;20226;-89
2020/12/17 16:00:25;;;;;;;10.00;8.17;;;6.00;95.00;;;;;;5016811;28;20231;-85
2020/12/17 16:02:51;;;;;;;11.40;7.73;;;6.00;94.90;;;;;;5013677;28;20241;-90
2020/12/17 16:05:17;;;;;;;11.90;7.77;;;6.00;94.70;;;;;;5023510;28;20232;-86
2020/12/17 16:07:44;;;;;;;9.80;8.20;;;5.90;94.90;;;;;;5021155;28;20291;-85
2020/12/17 16:10:10;;;;;;;7.70;6.90;;;5.90;95.30;;;;;;5014034;28;20199;-88
2020/12/17 16:12:41;;;;;;;9.23;7.67;;;5.90;95.30;;;;;;5017610;28;20228;-88
2020/12/17 16:15:09;;;;;;;11.70;7.67;;;6.00;94.90;;;;;;5014859;28;20207;-88
2020/12/17 16:17:36;;;;;;;10.63;7.47;;;5.90;94.70;;;;;;5019901;28;20230;-88
2020/12/17 16:20:05;;;;;;;9.47;7.30;;;5.90;94.80;;;;;;5029499;28;20207;-87
2020/12/17 16:22:40;;;;;;;8.50;7.10;;;5.80;95.10;;;;;;5017500;28;20230;-87
2020/12/17 16:25:18;;;;;;;9.60;7.60;;;5.80;95.20;;;;;;5028753;28;20667;-90
2020/12/17 16:27:44;;;;;;;11.63;7.87;;;5.60;95.20;;;;;;5028357;28;20226;-90
2020/12/17 16:30:15;;;;;;;9.33;7.27;;;5.60;95.20;;;;;;5032550;28;20549;-85
2020/12/17 16:32:45;;;;;;;9.37;7.77;;;5.50;95.40;;;;;;5031042;28;20219;-84
2020/12/17 16:35:11;;;;;;;9.73;8.03;;;5.50;95.50;;;;;;5037778;28;20202;-84
2020/12/17 16:38:03;;;;;;;9.73;7.40;;;5.50;95.60;;;;;;5040419;28;20305;-85
2020/12/17 16:40:38;;;;;;;12.20;7.40;;;5.60;95.60;;;;;;5030237;28;20203;-90
2020/12/17 16:43:07;;;;;;;12.73;7.73;;;5.60;95.20;;;;;;5030797;28;20297;-85
2020/12/17 16:45:35;;;;;;;11.83;7.03;;;5.60;95.20;;;;;;5038520;28;20278;-83
2020/12/17 16:48:01;;;;;;;8.87;7.83;;;5.50;95.20;;;;;;5023330;28;20242;-85
2020/12/17 16:50:48;;;;;;;12.93;8.27;;;5.40;95.30;;;;;;5031981;28;20202;-82
2020/12/17 16:53:19;;;;;;;14.00;8.67;;;5.30;95.70;;;;;;5027367;28;20574;-88
2020/12/17 16:55:48;;;;;;;13.43;9.00;;;5.30;95.70;;;;;;5022774;28;20565;-83
2020/12/17 16:58:16;;;;;;;12.17;8.80;;;5.30;95.70;;;;;;5027755;28;20258;-84
2020/12/17 17:00:44;;;;;;;12.87;8.23;;;5.20;95.90;;;;;;5028477;28;20230;-84
2020/12/17 17:03:37;;;;;;;11.57;8.43;;;5.20;95.90;;;;;;5037678;28;20230;-84
2020/12/17 17:06:03;;;;;;;17.60;9.13;;;5.20;96.00;;;;;;5036957;28;20683;-82
2020/12/17 17:08:30;;;;;;;14.77;8.90;;;5.20;96.00;;;;;;5036755;28;20219;-80
2020/12/17 17:10:56;;;;;;;13.80;8.87;;;5.10;96.10;;;;;;5042338;28;20442;-83
2020/12/17 17:13:23;;;;;;;10.63;8.60;;;5.10;96.40;;;;;;5033562;28;20294;-85
2020/12/17 17:15:50;;;;;;;14.73;10.33;;;5.00;96.40;;;;;;5043543;28;20294;-84
2020/12/17 17:18:26;;;;;;;12.73;9.20;;;5.00;96.60;;;;;;5041768;28;20241;-84
2020/12/17 17:20:53;;;;;;;14.17;9.97;;;5.00;96.70;;;;;;5044717;28;20278;-85
2020/12/17 17:23:19;;;;;;;17.17;10.43;;;5.00;96.60;;;;;;5038372;28;20257;-85
2020/12/17 17:25:48;;;;;;;17.83;13.40;;;5.10;96.70;;;;;;5035169;28;20726;-87
2020/12/17 17:28:14;;;;;;;15.40;11.07;;;5.10;96.40;;;;;;5033370;28;20222;-88
2020/12/17 17:30:41;;;;;;;14.80;10.93;;;5.10;96.30;;;;;;5041190;28;20620;-85
2020/12/17 17:33:09;;;;;;;13.57;9.47;;;5.00;96.40;;;;;;5028336;28;20237;-87
2020/12/17 17:35:37;;;;;;;15.50;10.70;;;4.90;96.50;;;;;;5030520;28;20205;-84
2020/12/17 17:38:04;;;;;;;12.83;10.47;;;4.90;96.50;;;;;;5031483;28;20240;-84
2020/12/17 17:40:30;;;;;;;16.03;11.03;;;4.80;96.60;;;;;;5026570;28;20302;-87
2020/12/17 17:42:56;;;;;;;17.97;10.70;;;4.80;96.80;;;;;;5027853;28;20233;-83
2020/12/17 17:45:25;;;;;;;14.73;10.53;;;4.80;97.00;;;;;;5033544;28;20285;-84
2020/12/17 17:47:52;;;;;;;13.63;10.73;;;4.90;96.90;;;;;;5030472;28;20231;-84
2020/12/17 17:50:19;;;;;;;13.17;10.13;;;4.80;96.80;;;;;;5030241;28;20537;-84
2020/12/17 17:52:45;;;;;;;13.90;10.23;;;4.80;96.90;;;;;;5033552;28;20246;-87
2020/12/17 17:55:19;;;;;;;16.07;10.30;;;4.90;96.80;;;;;;5032144;28;20267;-83
2020/12/17 17:57:47;;;;;;;13.00;11.10;;;4.90;96.70;;;;;;5029205;28;20318;-87
2020/12/17 18:00:13;;;;;;;13.30;10.47;;;4.90;96.60;;;;;;5024963;28;20230;-84
2020/12/17 18:02:40;;;;;;;14.43;11.73;;;4.90;96.80;;;;;;5020200;28;20226;-82
2020/12/17 18:05:06;;;;;;;15.30;11.93;;;4.90;96.70;;;;;;5027555;28;20213;-85
2020/12/17 18:07:33;;;;;;;14.37;11.80;;;4.80;96.60;;;;;;5033564;28;20226;-85
2020/12/17 18:10:00;;;;;;;13.53;9.80;;;4.70;96.80;;;;;;5032918;28;20218;-86
2020/12/17 18:12:26;;;;;;;12.97;11.53;;;4.60;97.30;;;;;;5032189;28;20289;-86
2020/12/17 18:14:52;;;;;;;14.77;11.73;;;4.70;97.40;;;;;;5030933;28;20249;-84
2020/12/17 18:17:19;;;;;;;16.00;12.30;;;4.70;97.10;;;;;;5031597;28;20680;-81
2020/12/17 18:19:45;;;;;;;17.40;14.43;;;4.70;97.10;;;;;;5027061;28;20281;-90
2020/12/17 18:22:12;;;;;;;15.33;13.53;;;4.60;97.10;;;;;;5031238;28;20210;-89
2020/12/17 18:24:44;;;;;;;17.40;13.00;;;4.50;97.30;;;;;;5032999;28;20326;-91
2020/12/17 18:27:10;;;;;;;21.03;13.30;;;4.50;97.60;;;;;;5030394;28;20275;-87
2020/12/17 18:29:37;;;;;;;19.40;13.87;;;4.40;97.80;;;;;;5020154;28;20294;-88
2020/12/17 18:32:03;;;;;;;27.00;14.70;;;4.30;98.60;;;;;;5028523;28;20228;-85
2020/12/17 18:34:31;;;;;;;22.73;14.70;;;4.50;99.50;;;;;;5028949;28;20638;-89
2020/12/17 18:36:57;;;;;;;24.10;13.47;;;4.50;99.20;;;;;;5029335;28;20237;-85
2020/12/17 18:39:24;;;;;;;18.37;12.87;;;4.50;99.30;;;;;;5029375;28;20739;-88
2020/12/17 18:41:53;;;;;;;16.93;12.33;;;4.60;99.30;;;;;;5032430;28;20724;-82
2020/12/17 18:44:19;;;;;;;20.40;11.90;;;4.60;98.90;;;;;;5039378;28;20548;-85
2020/12/17 18:46:46;;;;;;;18.00;12.53;;;4.60;98.90;;;;;;5032838;28;20569;-85
2020/12/17 18:49:14;;;;;;;15.83;11.83;;;4.60;98.90;;;;;;5028012;28;20321;-83
2020/12/17 18:51:40;;;;;;;14.40;11.53;;;4.60;98.80;;;;;;5028179;28;20206;-83
2020/12/17 18:54:07;;;;;;;18.40;12.10;;;4.60;98.50;;;;;;5033333;28;20321;-85
2020/12/17 18:56:33;;;;;;;19.07;11.83;;;4.60;98.30;;;;;;5029687;28;20218;-82
2020/12/17 18:59:00;;;;;;;15.73;11.70;;;4.50;98.40;;;;;;5028030;28;20219;-84
2020/12/17 19:01:27;;;;;;;15.90;11.93;;;4.50;98.70;;;;;;5037322;28;20198;-83
2020/12/17 19:03:54;;;;;;;17.00;11.03;;;4.50;98.60;;;;;;5025303;28;20604;-89
2020/12/17 19:06:20;;;;;;;17.83;10.67;;;4.60;98.50;;;;;;5030514;28;20277;-86
2020/12/17 19:08:47;;;;;;;15.13;11.23;;;4.70;98.20;;;;;;5027210;28;20309;-84
2020/12/17 19:11:13;;;;;;;16.63;11.43;;;4.60;98.20;;;;;;5027201;28;20208;-82
2020/12/17 19:13:41;;;;;;;16.70;11.03;;;4.70;98.00;;;;;;5032172;28;20230;-84
2020/12/17 19:16:08;;;;;;;15.67;11.73;;;4.80;97.90;;;;;;5030713;28;20744;-81
2020/12/17 19:18:35;;;;;;;17.10;11.93;;;4.80;97.70;;;;;;5032886;28;20250;-82
2020/12/17 19:21:02;;;;;;;19.27;12.50;;;4.90;97.70;;;;;;5031125;28;20230;-86
2020/12/17 19:23:28;;;;;;;16.63;11.30;;;4.90;97.20;;;;;;5031268;28;20231;-86
2020/12/17 19:25:55;;;;;;;20.27;11.33;;;4.80;97.00;;;;;;5037605;28;20657;-84
2020/12/17 19:28:21;;;;;;;17.23;12.07;;;4.70;96.90;;;;;;5029087;28;20265;-82
2020/12/17 19:30:47;;;;;;;16.50;12.87;;;4.60;97.20;;;;;;5031025;28;20257;-83
2020/12/17 19:33:15;;;;;;;20.50;12.67;;;4.60;97.30;;;;;;5028895;28;20242;-81
2020/12/17 19:35:42;;;;;;;17.40;13.70;;;4.60;97.10;;;;;;5032764;28;20257;-81
2020/12/17 19:38:08;;;;;;;21.77;13.67;;;4.70;96.90;;;;;;5034901;28;20226;-82
2020/12/17 19:40:34;;;;;;;18.20;12.87;;;4.70;96.80;;;;;;5035643;28;20205;-83
2020/12/17 19:43:01;;;;;;;16.87;13.63;;;4.80;96.70;;;;;;5036863;28;20813;-83
2020/12/17 19:45:28;;;;;;;19.17;14.10;;;4.80;96.60;;;;;;5028065;28;20281;-83
2020/12/17 19:47:56;;;;;;;17.83;13.70;;;4.90;96.10;;;;;;5025015;28;20252;-87
2020/12/17 19:50:24;;;;;;;16.30;13.00;;;4.80;96.00;;;;;;5027635;28;20289;-86
2020/12/17 19:52:50;;;;;;;21.90;14.53;;;4.90;96.50;;;;;;5029860;28;20725;-82
2020/12/17 19:55:16;;;;;;;20.87;16.37;;;4.80;96.50;;;;;;5029354;28;20641;-82
2020/12/17 19:57:43;;;;;;;22.27;15.93;;;4.80;96.80;;;;;;5030800;28;20580;-81
2020/12/17 20:00:14;;;;;;;21.03;15.10;;;4.90;96.80;;;;;;5027912;28;20261;-84